createdAt,value
2018-06-17T00:02:01.815Z,10.70
2018-06-17T00:04:31.157Z,10.17
2018-06-17T00:07:00.408Z,10.20
2018-06-17T00:09:29.926Z,10.50
2018-06-17T00:14:52.136Z,9.23
2018-06-17T00:17:21.304Z,9.50
2018-06-17T00:19:50.374Z,8.77
2018-06-17T00:22:19.687Z,9.90
2018-06-17T00:24:49.245Z,9.87
2018-06-17T00:27:18.562Z,9.33
2018-06-17T00:29:47.872Z,9.70
2018-06-17T00:32:22.012Z,10.33
2018-06-17T00:34:51.408Z,9.73
2018-06-17T00:37:20.618Z,9.50
2018-06-17T00:39:50.181Z,9.80
2018-06-17T00:42:31.667Z,9.53
2018-06-17T00:45:02.829Z,9.53
2018-06-17T00:48:50.761Z,9.87
2018-06-17T00:51:20.443Z,9.90
2018-06-17T00:53:49.749Z,10.10
2018-06-17T00:56:18.953Z,9.40
2018-06-17T01:01:40.717Z,8.90
2018-06-17T01:04:11.974Z,9.87
2018-06-17T01:06:44.772Z,8.50
2018-06-17T01:09:14.200Z,9.47
2018-06-17T01:11:43.580Z,8.87
2018-06-17T01:14:13.155Z,8.23
2018-06-17T01:16:42.114Z,9.80
2018-06-17T01:19:11.302Z,9.53
2018-06-17T01:21:40.657Z,9.37
2018-06-17T01:24:13.847Z,8.33
2018-06-17T01:26:43.185Z,8.47
2018-06-17T01:29:12.364Z,8.77
2018-06-17T01:31:41.372Z,8.40
2018-06-17T01:34:10.580Z,8.90
2018-06-17T01:36:39.588Z,9.23
2018-06-17T01:39:09.466Z,9.07
2018-06-17T01:41:38.915Z,8.67
2018-06-17T01:44:09.327Z,9.17
2018-06-17T01:46:38.753Z,9.50
2018-06-17T01:49:08.924Z,8.50
2018-06-17T01:51:38.276Z,8.43
2018-06-17T01:54:08.176Z,8.87
2018-06-17T01:56:37.187Z,9.00
2018-06-17T01:59:09.816Z,9.50
2018-06-17T02:01:39.058Z,8.87
2018-06-17T02:04:13.273Z,9.43
2018-06-17T02:06:47.479Z,9.30
2018-06-17T02:09:21.941Z,9.00
2018-06-17T02:11:56.002Z,8.77
2018-06-17T02:14:30.224Z,8.27
2018-06-17T02:16:59.428Z,8.80
2018-06-17T02:19:28.661Z,8.63
2018-06-17T02:22:18.425Z,9.00
2018-06-17T02:24:48.559Z,8.97
2018-06-17T02:27:26.964Z,9.10
2018-06-17T02:31:25.827Z,9.30
2018-06-17T02:34:27.508Z,9.20
2018-06-17T02:38:03.311Z,9.07
2018-06-17T02:40:33.390Z,10.17
2018-06-17T02:43:03.390Z,9.57
2018-06-17T02:45:42.198Z,10.27
2018-06-17T02:48:17.768Z,9.87
2018-06-17T02:50:54.156Z,10.00
2018-06-17T02:53:28.324Z,9.60
2018-06-17T02:55:57.617Z,9.33
2018-06-17T02:58:27.187Z,9.33
2018-06-17T03:00:56.447Z,9.87
2018-06-17T03:03:25.877Z,10.23
2018-06-17T03:06:11.060Z,9.47
2018-06-17T03:15:28.285Z,9.13
2018-06-17T03:17:57.473Z,10.90
2018-06-17T03:20:26.587Z,11.57
2018-06-17T03:22:55.985Z,10.27
2018-06-17T03:25:30.136Z,10.93
2018-06-17T03:28:04.952Z,9.80
2018-06-17T03:30:39.888Z,9.77
2018-06-17T03:33:14.200Z,9.73
2018-06-17T03:35:48.395Z,10.00
2018-06-17T03:38:21.612Z,9.50
2018-06-17T03:40:51.093Z,10.50
2018-06-17T03:43:20.285Z,10.60
2018-06-17T03:45:49.497Z,11.37
2018-06-17T03:48:19.285Z,10.60
2018-06-17T03:50:48.513Z,10.30
2018-06-17T03:53:17.976Z,10.40
2018-06-17T03:55:52.533Z,9.17
2018-06-17T03:58:23.017Z,9.17
2018-06-17T04:00:52.291Z,9.17
2018-06-17T04:03:21.455Z,8.57
2018-06-17T04:05:51.249Z,8.70
2018-06-17T04:08:20.359Z,8.83
2018-06-17T04:10:49.451Z,8.10
2018-06-17T04:13:18.888Z,8.20
2018-06-17T04:19:50.140Z,7.30
2018-06-17T04:22:19.223Z,6.93
2018-06-17T04:25:05.833Z,8.00
2018-06-17T04:27:35.135Z,6.47
2018-06-17T04:30:04.252Z,7.17
2018-06-17T04:32:33.591Z,6.40
2018-06-17T04:35:02.844Z,5.93
2018-06-17T04:37:36.014Z,6.67
2018-06-17T04:40:05.327Z,6.37
2018-06-17T04:42:34.480Z,5.97
2018-06-17T04:45:04.408Z,6.70
2018-06-17T04:47:33.662Z,6.20
2018-06-17T04:50:03.015Z,6.10
2018-06-17T04:52:32.601Z,5.53
2018-06-17T04:55:02.767Z,6.37
2018-06-17T04:57:31.701Z,5.77
2018-06-17T05:00:01.295Z,5.23
2018-06-17T05:02:30.597Z,5.73
2018-06-17T05:04:59.652Z,4.93
2018-06-17T05:07:29.077Z,5.05
2018-06-17T05:09:58.274Z,4.87
2018-06-17T05:12:27.521Z,5.35
2018-06-17T05:14:56.670Z,5.00
2018-06-17T05:17:25.732Z,4.37
2018-06-17T05:19:54.991Z,4.75
2018-06-17T05:22:25.599Z,5.00
2018-06-17T05:24:54.734Z,4.53
2018-06-17T05:27:23.730Z,4.83
2018-06-17T05:29:53.341Z,5.50
2018-06-17T05:32:22.310Z,4.58
2018-06-17T05:34:51.605Z,5.20
2018-06-17T05:37:20.841Z,5.22
2018-06-17T05:39:50.120Z,4.75
2018-06-17T05:42:19.097Z,5.05
2018-06-17T05:44:48.742Z,4.97
2018-06-17T05:47:19.382Z,5.60
2018-06-17T05:49:48.578Z,5.50
2018-06-17T05:52:19.120Z,6.25
2018-06-17T05:54:48.394Z,5.80
2018-06-17T05:57:17.616Z,5.75
2018-06-17T05:59:53.521Z,5.50
2018-06-17T06:02:23.156Z,5.75
2018-06-17T06:05:02.052Z,5.22
2018-06-17T06:07:31.416Z,5.55
2018-06-17T06:10:00.456Z,5.70
2018-06-17T06:12:29.809Z,5.78
2018-06-17T06:14:59.655Z,6.12
2018-06-17T06:17:28.759Z,5.85
2018-06-17T06:19:58.100Z,6.10
2018-06-17T06:22:27.300Z,6.12
2018-06-17T06:24:56.395Z,5.40
2018-06-17T06:27:25.400Z,5.53
2018-06-17T06:29:54.349Z,5.47
2018-06-17T06:32:23.368Z,5.85
2018-06-17T06:34:52.332Z,5.87
2018-06-17T06:37:21.494Z,4.92
2018-06-17T06:39:50.552Z,5.15
2018-06-17T06:42:19.745Z,5.42
2018-06-17T06:44:48.746Z,5.30
2018-06-17T06:47:17.832Z,4.55
2018-06-17T06:49:47.067Z,5.00
2018-06-17T06:52:16.161Z,5.53
2018-06-17T06:54:45.407Z,5.10
2018-06-17T06:57:14.377Z,4.05
2018-06-17T06:59:43.574Z,4.30
2018-06-17T07:02:23.595Z,5.50
2018-06-17T07:05:03.524Z,5.50
2018-06-17T07:07:43.877Z,5.12
2018-06-17T07:10:23.462Z,4.05
2018-06-17T07:12:53.675Z,4.60
2018-06-17T07:15:34.200Z,4.70
2018-06-17T07:18:13.979Z,4.30
2018-06-17T07:20:43.448Z,5.12
2018-06-17T07:23:12.761Z,4.12
2018-06-17T07:26:54.400Z,5.00
2018-06-17T07:29:38.590Z,4.53
2018-06-17T07:32:07.907Z,5.00
2018-06-17T07:34:37.011Z,5.03
2018-06-17T07:37:06.489Z,5.60
2018-06-17T07:41:43.982Z,5.85
2018-06-17T07:44:13.274Z,5.78
2018-06-17T07:46:42.466Z,4.95
2018-06-17T07:49:33.558Z,4.90
2018-06-17T07:52:15.326Z,4.95
2018-06-17T07:54:45.873Z,6.22
2018-06-17T07:57:16.074Z,5.65
2018-06-17T07:59:45.368Z,4.83
2018-06-17T08:02:15.021Z,5.65
2018-06-17T08:04:44.138Z,4.80
2018-06-17T08:07:13.592Z,5.10
2018-06-17T08:09:42.652Z,4.35
2018-06-17T08:12:12.239Z,4.97
2018-06-17T08:14:41.918Z,4.17
2018-06-17T08:17:11.172Z,4.08
2018-06-17T08:19:40.490Z,3.45
2018-06-17T08:22:09.653Z,3.67
2018-06-17T08:24:39.003Z,3.72
2018-06-17T08:27:08.048Z,3.67
2018-06-17T08:29:37.491Z,3.80
2018-06-17T08:32:06.648Z,3.58
2018-06-17T08:34:35.786Z,4.17
2018-06-17T08:37:04.986Z,3.50
2018-06-17T08:39:34.052Z,4.70
2018-06-17T08:42:03.099Z,3.12
2018-06-17T08:44:32.647Z,3.35
2018-06-17T08:47:01.597Z,3.37
2018-06-17T08:49:30.788Z,3.58
2018-06-17T08:51:59.844Z,3.85
2018-06-17T08:54:28.866Z,4.45
2018-06-17T08:56:57.874Z,3.62
2018-06-17T08:59:27.633Z,3.42
2018-06-17T09:01:56.766Z,4.00
2018-06-17T09:04:25.771Z,3.60
2018-06-17T09:06:55.070Z,3.90
2018-06-17T09:09:23.957Z,3.30
2018-06-17T09:11:52.984Z,3.30
2018-06-17T09:14:22.494Z,3.70
2018-06-17T09:16:51.493Z,3.25
2018-06-17T09:19:20.610Z,3.50
2018-06-17T09:21:50.046Z,3.60
2018-06-17T09:24:18.970Z,3.12
2018-06-17T09:26:48.109Z,3.20
2018-06-17T09:29:17.778Z,3.02
2018-06-17T09:31:47.058Z,3.50
2018-06-17T09:34:16.009Z,3.37
2018-06-17T09:36:45.854Z,3.08
2018-06-17T09:39:14.692Z,3.65
2018-06-17T09:41:43.587Z,3.80
2018-06-17T09:44:13.104Z,3.65
2018-06-17T09:46:42.063Z,3.50
2018-06-17T09:49:11.243Z,4.03
2018-06-17T09:51:40.586Z,3.22
2018-06-17T09:54:09.578Z,3.00
2018-06-17T09:56:38.509Z,3.52
2018-06-17T09:59:07.711Z,3.00
2018-06-17T10:01:36.789Z,3.20
2018-06-17T10:04:05.801Z,3.40
2018-06-17T10:06:35.105Z,3.12
2018-06-17T10:09:05.510Z,3.67
2018-06-17T10:11:34.487Z,3.22
2018-06-17T10:14:03.900Z,2.62
2018-06-17T10:16:33.050Z,3.00
2018-06-17T10:19:02.200Z,3.45
2018-06-17T10:21:31.746Z,3.55
2018-06-17T10:24:01.379Z,3.30
2018-06-17T10:26:31.188Z,3.30
2018-06-17T10:29:00.146Z,3.17
2018-06-17T10:31:29.259Z,3.33
2018-06-17T10:33:58.209Z,2.95
2018-06-17T10:36:27.260Z,3.45
2018-06-17T10:38:56.288Z,4.10
2018-06-17T10:41:25.179Z,3.80
2018-06-17T10:43:54.079Z,4.05
2018-06-17T10:46:23.041Z,3.50
2018-06-17T10:48:52.025Z,3.20
2018-06-17T10:51:21.272Z,3.17
2018-06-17T10:53:50.189Z,3.65
2018-06-17T10:56:20.159Z,2.98
2018-06-17T10:58:49.313Z,4.55
2018-06-17T11:01:18.359Z,3.42
2018-06-17T11:03:47.444Z,2.65
2018-06-17T11:06:16.881Z,2.90
2018-06-17T11:08:45.789Z,5.85
2018-06-17T11:11:14.808Z,2.62
2018-06-17T11:13:44.028Z,2.80
2018-06-17T11:16:13.161Z,3.17
2018-06-17T11:18:43.397Z,3.85
2018-06-17T11:21:12.562Z,2.70
2018-06-17T11:23:41.590Z,2.90
2018-06-17T11:26:11.255Z,3.10
2018-06-17T11:51:46.697Z,2.50
2018-06-17T11:54:16.151Z,2.00
2018-06-17T11:56:45.342Z,3.12
2018-06-17T11:59:14.461Z,2.90
2018-06-17T12:01:43.580Z,2.90
2018-06-17T12:04:12.531Z,2.47
2018-06-17T12:06:41.882Z,2.20
2018-06-17T12:09:11.883Z,3.25
2018-06-17T12:11:41.956Z,2.50
2018-06-17T12:14:11.086Z,2.35
2018-06-17T12:16:40.232Z,2.35
2018-06-17T12:19:09.442Z,2.47
2018-06-17T12:21:39.439Z,2.72
2018-06-17T12:24:08.705Z,2.45
2018-06-17T12:26:37.591Z,3.30
2018-06-17T12:29:06.788Z,2.50
2018-06-17T12:31:35.802Z,2.22
2018-06-17T12:34:05.014Z,2.50
2018-06-17T12:36:34.152Z,2.60
2018-06-17T12:39:03.452Z,2.35
2018-06-17T12:41:32.517Z,2.50
2018-06-17T12:44:02.060Z,2.65
2018-06-17T12:46:30.996Z,2.35
2018-06-17T12:49:00.255Z,2.42
2018-06-17T12:51:29.388Z,2.70
2018-06-17T12:53:58.489Z,3.08
2018-06-17T12:56:27.872Z,3.08
2018-06-17T12:58:57.475Z,2.70
2018-06-17T13:01:26.722Z,2.72
2018-06-17T13:03:55.706Z,2.20
2018-06-17T13:06:25.560Z,2.55
2018-06-17T13:08:55.532Z,2.00
2018-06-17T13:11:25.334Z,2.70
2018-06-17T13:13:54.533Z,2.87
2018-06-17T13:16:23.711Z,2.77
2018-06-17T13:18:54.351Z,3.30
2018-06-17T13:21:23.504Z,3.30
2018-06-17T13:23:52.513Z,2.95
2018-06-17T13:26:22.142Z,3.42
2018-06-17T13:28:51.141Z,3.00
2018-06-17T13:31:20.730Z,4.15
2018-06-17T13:33:50.809Z,3.62
2018-06-17T13:36:20.095Z,2.60
2018-06-17T13:38:49.163Z,2.60
2018-06-17T13:41:18.321Z,3.15
2018-06-17T13:43:47.289Z,3.20
2018-06-17T13:46:16.732Z,2.70
2018-06-17T13:48:45.679Z,3.12
2018-06-17T13:51:14.808Z,3.08
2018-06-17T13:53:43.927Z,3.37
2018-06-17T13:56:12.994Z,2.95
2018-06-17T13:58:42.133Z,2.60
2018-06-17T14:01:11.259Z,2.98
2018-06-17T14:03:40.443Z,3.05
2018-06-17T14:06:09.543Z,2.72
2018-06-17T14:08:38.658Z,2.67
2018-06-17T14:11:07.938Z,2.20
2018-06-17T14:13:38.607Z,2.10
2018-06-17T14:16:07.675Z,2.27
2018-06-17T14:18:36.883Z,2.05
2018-06-17T14:21:05.926Z,1.98
2018-06-17T14:23:34.905Z,2.70
2018-06-17T14:26:04.690Z,2.58
2018-06-17T14:28:33.900Z,2.37
2018-06-17T14:31:03.051Z,2.55
2018-06-17T14:33:32.399Z,2.72
2018-06-17T14:36:01.272Z,2.60
2018-06-17T14:38:30.266Z,2.77
2018-06-17T14:41:04.309Z,2.85
2018-06-17T14:43:38.525Z,2.83
2018-06-17T14:48:17.965Z,2.55
2018-06-17T14:50:52.272Z,2.80
2018-06-17T14:53:21.529Z,2.80
2018-06-17T14:55:50.667Z,3.02
2018-06-17T14:58:19.947Z,3.75
2018-06-17T15:00:49.135Z,2.85
2018-06-17T15:03:18.318Z,3.15
2018-06-17T15:05:47.948Z,3.10
2018-06-17T15:08:17.436Z,3.15
2018-06-17T15:10:46.401Z,2.65
2018-06-17T15:13:15.519Z,2.70
2018-06-17T15:15:45.313Z,2.77
2018-06-17T15:18:14.559Z,2.33
2018-06-17T15:20:43.477Z,2.40
2018-06-17T15:23:12.403Z,2.52
2018-06-17T15:25:41.272Z,2.83
2018-06-17T15:28:10.211Z,3.15
2018-06-17T15:30:39.878Z,2.70
2018-06-17T15:33:14.153Z,2.52
2018-06-17T15:35:48.325Z,3.00
2018-06-17T15:38:22.583Z,2.87
2018-06-17T15:40:57.349Z,2.72
2018-06-17T15:43:26.914Z,2.67
2018-06-17T15:45:56.368Z,2.90
2018-06-17T15:48:25.653Z,3.37
2018-06-17T15:50:54.785Z,2.77
2018-06-17T15:53:23.945Z,3.62
2018-06-17T15:55:53.245Z,2.72
2018-06-17T15:58:22.346Z,2.98
2018-06-17T16:00:51.558Z,2.72
2018-06-17T16:03:21.144Z,2.87
2018-06-17T16:05:50.141Z,2.90
2018-06-17T16:08:19.270Z,2.50
2018-06-17T16:10:48.832Z,2.77
2018-06-17T16:13:23.061Z,3.60
2018-06-17T16:15:57.564Z,3.40
2018-06-17T16:18:31.502Z,3.67
2018-06-17T16:21:03.516Z,5.53
2018-06-17T16:23:32.483Z,4.42
2018-06-17T16:26:01.735Z,4.08
2018-06-17T16:28:31.175Z,4.83
2018-06-17T16:31:00.188Z,4.67
2018-06-17T16:33:29.318Z,4.17
2018-06-17T16:35:58.523Z,3.92
2018-06-17T16:38:27.779Z,3.67
2018-06-17T16:40:56.801Z,5.22
2018-06-17T16:43:25.916Z,3.90
2018-06-17T16:45:54.921Z,13.88
2018-06-17T16:48:24.079Z,5.87
2018-06-17T16:50:58.157Z,4.95
2018-06-17T16:53:32.270Z,4.90
2018-06-17T16:56:06.590Z,9.75
2018-06-17T16:58:40.725Z,5.03
2018-06-17T17:01:09.810Z,3.58
2018-06-17T17:03:38.871Z,11.80
2018-06-17T17:06:07.861Z,5.92
2018-06-17T17:08:37.095Z,7.65
2018-06-17T17:11:06.171Z,6.03
2018-06-17T17:13:35.228Z,4.75
2018-06-17T17:16:04.859Z,5.55
2018-06-17T17:18:33.828Z,5.62
2018-06-17T17:21:03.010Z,4.20
2018-06-17T17:23:32.358Z,4.83
2018-06-17T17:26:01.367Z,4.17
2018-06-17T17:28:30.444Z,5.30
2018-06-17T17:31:00.049Z,3.90
2018-06-17T17:33:34.363Z,4.17
2018-06-17T17:36:08.856Z,5.58
2018-06-17T17:38:42.883Z,4.20
2018-06-17T17:41:12.603Z,4.33
2018-06-17T17:43:41.583Z,4.35
2018-06-17T17:46:16.092Z,3.77
2018-06-17T17:48:45.076Z,3.87
2018-06-17T17:51:14.358Z,3.83
2018-06-17T17:53:43.713Z,3.62
2018-06-17T17:56:12.695Z,3.15
2018-06-17T17:58:41.858Z,3.65
2018-06-17T18:01:11.410Z,3.85
2018-06-17T18:03:40.501Z,3.45
2018-06-17T18:06:09.507Z,3.62
2018-06-17T18:08:38.977Z,4.22
2018-06-17T18:11:08.169Z,3.27
2018-06-17T18:13:37.194Z,3.55
2018-06-17T18:16:06.465Z,5.12
2018-06-17T18:18:37.623Z,5.62
2018-06-17T18:22:36.558Z,7.78
2018-06-17T18:25:11.395Z,21.70
2018-06-17T18:27:45.855Z,9.97
2018-06-17T18:30:20.078Z,5.13
2018-06-17T18:32:54.157Z,7.33
2018-06-17T18:35:28.421Z,5.33
2018-06-17T18:37:58.170Z,5.87
2018-06-17T18:40:27.043Z,6.30
2018-06-17T18:42:56.061Z,6.70
2018-06-17T18:45:25.878Z,8.00
2018-06-17T18:47:55.187Z,7.70
2018-06-17T18:57:09.532Z,8.10
2018-06-17T18:59:38.508Z,7.93
2018-06-17T19:02:07.709Z,8.23
2018-06-17T19:04:37.024Z,8.17
2018-06-17T19:07:05.951Z,9.20
2018-06-17T19:09:41.170Z,8.87
2018-06-17T19:12:15.335Z,8.70
2018-06-17T19:14:49.805Z,8.87
2018-06-17T19:17:23.737Z,9.30
2018-06-17T19:19:52.811Z,9.03
2018-06-17T19:22:21.924Z,8.30
2018-06-17T19:24:51.004Z,8.10
2018-06-17T19:27:20.472Z,7.97
2018-06-17T19:29:49.599Z,7.63
2018-06-17T19:32:19.389Z,8.80
2018-06-17T19:34:48.929Z,9.60
2018-06-17T19:37:18.006Z,11.40
2018-06-17T19:39:47.094Z,10.67
2018-06-17T19:42:16.571Z,11.30
2018-06-17T19:44:46.168Z,10.33
2018-06-17T19:47:15.311Z,10.40
2018-06-17T19:49:50.075Z,10.03
2018-06-17T19:52:24.265Z,10.17
2018-06-17T19:54:58.380Z,10.90
2018-06-17T19:57:32.397Z,9.70
2018-06-17T20:00:06.407Z,8.90
2018-06-17T20:02:35.451Z,9.70
2018-06-17T20:05:04.570Z,8.43
2018-06-17T20:07:33.633Z,9.77
2018-06-17T20:10:02.672Z,9.33
2018-06-17T20:12:31.781Z,9.50
2018-06-17T20:15:00.794Z,9.57
2018-06-17T20:17:29.974Z,10.27
2018-06-17T20:19:58.966Z,9.73
2018-06-17T20:22:28.618Z,9.20
2018-06-17T20:24:57.674Z,9.27
2018-06-17T20:27:26.730Z,9.43
2018-06-17T20:29:55.931Z,9.37
2018-06-17T20:32:29.922Z,9.33
2018-06-17T20:35:04.395Z,9.27
2018-06-17T20:37:38.964Z,9.17
2018-06-17T20:40:13.372Z,9.13
2018-06-17T20:42:47.473Z,8.57
2018-06-17T20:45:16.688Z,8.83
2018-06-17T20:47:45.708Z,8.67
2018-06-17T20:50:14.820Z,8.80
2018-06-17T20:52:44.380Z,8.50
2018-06-17T20:55:13.454Z,7.87
2018-06-17T20:57:42.505Z,8.17
2018-06-17T21:00:11.618Z,7.27
2018-06-17T21:02:40.498Z,7.97
2018-06-17T21:05:09.577Z,7.70
2018-06-17T21:07:38.644Z,8.50
2018-06-17T21:10:07.848Z,7.93
2018-06-17T21:12:36.852Z,8.33
2018-06-17T21:15:09.909Z,8.73
2018-06-17T21:17:39.056Z,9.47
2018-06-17T21:20:13.351Z,8.83
2018-06-17T21:22:47.374Z,9.43
2018-06-17T21:25:21.396Z,9.33
2018-06-17T21:27:52.546Z,9.13
2018-06-17T21:30:22.499Z,9.13
2018-06-17T21:32:51.320Z,9.83
2018-06-17T21:35:20.314Z,10.00
2018-06-17T21:37:49.520Z,9.27
2018-06-17T21:40:18.533Z,9.47
2018-06-17T21:42:47.740Z,9.43
2018-06-17T21:45:17.250Z,8.30
2018-06-17T21:47:46.443Z,9.90
2018-06-17T21:50:15.419Z,8.80
2018-06-17T21:52:44.392Z,9.40
2018-06-17T21:55:13.539Z,9.90
2018-06-17T21:57:42.513Z,8.53
2018-06-17T22:00:11.557Z,9.10
2018-06-17T22:02:42.404Z,10.10
2018-06-17T22:05:11.409Z,9.83
2018-06-17T22:07:45.885Z,10.07
2018-06-17T22:10:20.283Z,9.53
2018-06-17T22:13:04.092Z,10.47
2018-06-17T22:15:38.088Z,11.63
2018-06-17T22:18:07.091Z,11.73
2018-06-17T22:20:36.203Z,11.93
2018-06-17T22:23:05.337Z,11.40
2018-06-17T22:25:34.887Z,11.27
2018-06-17T22:28:04.021Z,11.63
2018-06-17T22:30:33.060Z,10.63
2018-06-17T22:33:02.571Z,11.30
2018-06-17T22:35:31.564Z,9.97
2018-06-17T22:38:00.613Z,10.93
2018-06-17T22:40:29.781Z,10.97
2018-06-17T22:42:58.859Z,10.80
2018-06-17T22:45:27.813Z,11.10
2018-06-17T22:47:59.621Z,12.13
2018-06-17T22:50:28.843Z,10.93
2018-06-17T22:53:08.731Z,12.00
2018-06-17T22:55:37.834Z,11.33
2018-06-17T22:58:12.085Z,11.27
2018-06-17T23:00:46.314Z,10.90
2018-06-17T23:03:20.986Z,11.57
2018-06-17T23:05:55.134Z,10.40
2018-06-17T23:08:29.630Z,10.30
2018-06-17T23:10:58.629Z,9.17
2018-06-17T23:13:27.800Z,8.33
2018-06-17T23:15:57.485Z,8.77
2018-06-17T23:18:26.505Z,7.80
2018-06-17T23:20:55.582Z,7.60
2018-06-17T23:23:24.790Z,7.93
2018-06-17T23:25:53.778Z,8.47
2018-06-17T23:28:22.881Z,8.43
2018-06-17T23:30:51.940Z,8.10
2018-06-17T23:33:21.036Z,7.70
2018-06-17T23:35:50.134Z,7.77
2018-06-17T23:38:19.969Z,7.67
2018-06-17T23:40:49.014Z,7.27
2018-06-17T23:43:18.034Z,7.03
2018-06-17T23:45:52.084Z,7.87
2018-06-17T23:48:26.070Z,8.13
2018-06-17T23:51:00.391Z,7.23
2018-06-17T23:53:34.503Z,7.47
2018-06-17T23:56:07.810Z,8.57
2018-06-17T23:58:37.679Z,7.43
